Terminal Aerodrome Forecast
Issued by NWS Topeka, KS

Home | Current Version | Previous Version | Text Only | Print | Product List | Glossary On
Versions: 1 2 3 4 5 6 7 8 9 10 11 12 13 14
000
FTUS43 KTOP 300520
TAFTOP
TAF
KTOP 300520Z 3006/3106 02002KT P6SM FEW250
      TEMPO 3011/3013 3SM BR
     FM301400 10006KT P6SM SCT050=

USA.gov is the U.S. government's official web portal to all federal, state and local government web resources and services.